OB2032 SACO-SADF
Flight info
| Callsign | OB2032 |
|---|---|
| Flight time | 1h 56m |
| Altitude | 19000 |
| Route | DCT UTRAX DCT MJZ DCT KIKIP DCT UDITA DCT MULTA DCT |
| Aircraft | PA34/M-SDG/C |
Departure
| Time | 2026-04-21 23:10 |
|---|---|
| Airport | Ingeniero Aeronáutico Ambrosio L.V. Taravella International Airport (SACO) |
Arrival
| Time | 2026-04-22 01:06 |
|---|---|
| Airport | San Fernando Airport (SADF) |
| Time | Latitude | Longitude | Altitude | Speed | Heading |
|---|---|---|---|---|---|
| 2026-04-21 22:51 | -31.31373 | -64.21191 | 1557 ft | 0 kts | 228° |
| 2026-04-21 23:05 | -31.31371 | -64.21174 | 1557 ft | 11 kts | 72° |
| 2026-04-21 23:06 | -31.31368 | -64.21161 | 1557 ft | 0 kts | 75° |
| 2026-04-21 23:06 | -31.31366 | -64.21129 | 1557 ft | 12 kts | 93° |
| 2026-04-21 23:06 | -31.31385 | -64.21096 | 1557 ft | 6 kts | 191° |
| 2026-04-21 23:06 | -31.31450 | -64.21084 | 1555 ft | 13 kts | 157° |
| 2026-04-21 23:07 | -31.31466 | -64.21076 | 1555 ft | 2 kts | 168° |
| 2026-04-21 23:07 | -31.31477 | -64.21024 | 1554 ft | 13 kts | 70° |
| 2026-04-21 23:07 | -31.31465 | -64.20925 | 1553 ft | 0 kts | 88° |
| 2026-04-21 23:08 | -31.31464 | -64.20905 | 1552 ft | 8 kts | 90° |
| 2026-04-21 23:08 | -31.31489 | -64.20829 | 1551 ft | 13 kts | 164° |
| 2026-04-21 23:08 | -31.31514 | -64.20825 | 1550 ft | 1 kts | 176° |
| 2026-04-21 23:08 | -31.31518 | -64.20824 | 1550 ft | 0 kts | 177° |
| 2026-04-21 23:09 | -31.31523 | -64.20824 | 1550 ft | 8 kts | 177° |
| 2026-04-21 23:09 | -31.31862 | -64.20817 | 1541 ft | 85 kts | 179° |
| 2026-04-21 23:10 | -31.32561 | -64.20798 | 1711 ft | 105 kts | 179° |
| 2026-04-21 23:10 | -31.33278 | -64.20755 | 2056 ft | 103 kts | 180° |
| 2026-04-21 23:10 | -31.34002 | -64.20805 | 2341 ft | 108 kts | 186° |
| 2026-04-21 23:10 | -31.34746 | -64.20910 | 2897 ft | 100 kts | 187° |
| 2026-04-21 23:11 | -31.35435 | -64.20922 | 3292 ft | 107 kts | 168° |
| 2026-04-21 23:11 | -31.36107 | -64.20521 | 3724 ft | 105 kts | 144° |
| 2026-04-21 23:11 | -31.36605 | -64.19886 | 4122 ft | 112 kts | 127° |
| 2026-04-21 23:11 | -31.36843 | -64.18981 | 4442 ft | 124 kts | 97° |
| 2026-04-21 23:12 | -31.36914 | -64.18047 | 4956 ft | 111 kts | 99° |
| 2026-04-21 23:12 | -31.37015 | -64.17088 | 5195 ft | 125 kts | 100° |
| 2026-04-21 23:12 | -31.37144 | -64.16122 | 5654 ft | 116 kts | 101° |
| 2026-04-21 23:12 | -31.37353 | -64.15170 | 5932 ft | 127 kts | 109° |
| 2026-04-21 23:13 | -31.37691 | -64.14243 | 6367 ft | 120 kts | 116° |
| 2026-04-21 23:13 | -31.38103 | -64.13349 | 6668 ft | 129 kts | 118° |
| 2026-04-21 23:13 | -31.38539 | -64.12451 | 7061 ft | 124 kts | 118° |
| 2026-04-21 23:13 | -31.38986 | -64.11563 | 7368 ft | 130 kts | 120° |
| 2026-04-21 23:14 | -31.39456 | -64.10664 | 7728 ft | 129 kts | 122° |
| 2026-04-21 23:14 | -31.40040 | -64.09827 | 8023 ft | 134 kts | 130° |
| 2026-04-21 23:14 | -31.40638 | -64.09012 | 8423 ft | 132 kts | 129° |
| 2026-04-21 23:14 | -31.41234 | -64.08158 | 8709 ft | 138 kts | 128° |
| 2026-04-21 23:15 | -31.41841 | -64.07307 | 9105 ft | 134 kts | 129° |
| 2026-04-21 23:15 | -31.42478 | -64.06464 | 9364 ft | 144 kts | 132° |
| 2026-04-21 23:15 | -31.43163 | -64.05566 | 9596 ft | 151 kts | 129° |
| 2026-04-21 23:15 | -31.43828 | -64.04601 | 9847 ft | 154 kts | 127° |
| 2026-04-21 23:16 | -31.44490 | -64.03612 | 10092 ft | 155 kts | 127° |
| 2026-04-21 23:16 | -31.45150 | -64.02617 | 10322 ft | 155 kts | 127° |
| 2026-04-21 23:16 | -31.45803 | -64.01632 | 10546 ft | 155 kts | 127° |
| 2026-04-21 23:16 | -31.46468 | -64.00627 | 10782 ft | 154 kts | 128° |
| 2026-04-21 23:17 | -31.47123 | -63.99639 | 11015 ft | 153 kts | 128° |
| 2026-04-21 23:17 | -31.47772 | -63.98659 | 11242 ft | 151 kts | 128° |
| 2026-04-21 23:17 | -31.48413 | -63.97691 | 11477 ft | 149 kts | 128° |
| 2026-04-21 23:17 | -31.49036 | -63.96749 | 11709 ft | 147 kts | 129° |
| 2026-04-21 23:18 | -31.49653 | -63.95819 | 11940 ft | 142 kts | 129° |
| 2026-04-21 23:18 | -31.50243 | -63.94928 | 12169 ft | 135 kts | 129° |
| 2026-04-21 23:18 | -31.50796 | -63.94092 | 12385 ft | 124 kts | 129° |
| 2026-04-21 23:18 | -31.51293 | -63.93341 | 12586 ft | 108 kts | 130° |
| 2026-04-21 23:19 | -31.51733 | -63.92676 | 12729 ft | 101 kts | 129° |
| 2026-04-21 23:19 | -31.52200 | -63.91967 | 12760 ft | 126 kts | 131° |
| 2026-04-21 23:19 | -31.52778 | -63.91191 | 13031 ft | 127 kts | 135° |
| 2026-04-21 23:19 | -31.53391 | -63.90385 | 13267 ft | 135 kts | 131° |
| 2026-04-21 23:20 | -31.53919 | -63.89489 | 13579 ft | 139 kts | 125° |
| 2026-04-21 23:20 | -31.54503 | -63.88514 | 13756 ft | 153 kts | 129° |
| 2026-04-21 23:20 | -31.55170 | -63.87475 | 13929 ft | 166 kts | 130° |
| 2026-04-21 23:20 | -31.55895 | -63.86371 | 14077 ft | 176 kts | 130° |
| 2026-04-21 23:21 | -31.56659 | -63.85213 | 14213 ft | 183 kts | 130° |
| 2026-04-21 23:21 | -31.57452 | -63.84010 | 14345 ft | 189 kts | 130° |
| 2026-04-21 23:21 | -31.58267 | -63.82774 | 14473 ft | 193 kts | 130° |
| 2026-04-21 23:21 | -31.59096 | -63.81520 | 14598 ft | 195 kts | 131° |
| 2026-04-21 23:22 | -31.59930 | -63.80260 | 14712 ft | 196 kts | 131° |
| 2026-04-21 23:22 | -31.60768 | -63.78988 | 14837 ft | 197 kts | 131° |
| 2026-04-21 23:22 | -31.61609 | -63.77711 | 14955 ft | 198 kts | 131° |
| 2026-04-21 23:22 | -31.62453 | -63.76430 | 15073 ft | 199 kts | 131° |
| 2026-04-21 23:23 | -31.63300 | -63.75142 | 15190 ft | 200 kts | 132° |
| 2026-04-21 23:23 | -31.64152 | -63.73850 | 15310 ft | 200 kts | 132° |
| 2026-04-21 23:23 | -31.65004 | -63.72555 | 15433 ft | 201 kts | 132° |
| 2026-04-21 23:23 | -31.65856 | -63.71260 | 15548 ft | 201 kts | 132° |
| 2026-04-21 23:24 | -31.66715 | -63.69954 | 15669 ft | 201 kts | 133° |
| 2026-04-21 23:24 | -31.67571 | -63.68651 | 15789 ft | 202 kts | 133° |
| 2026-04-21 23:24 | -31.68428 | -63.67348 | 15907 ft | 202 kts | 133° |
| 2026-04-21 23:24 | -31.69285 | -63.66044 | 16029 ft | 202 kts | 133° |
| 2026-04-21 23:25 | -31.70144 | -63.64736 | 16152 ft | 202 kts | 133° |
| 2026-04-21 23:25 | -31.71003 | -63.63428 | 16273 ft | 202 kts | 133° |
| 2026-04-21 23:25 | -31.71861 | -63.62120 | 16394 ft | 202 kts | 134° |
| 2026-04-21 23:25 | -31.72719 | -63.60811 | 16517 ft | 202 kts | 134° |
| 2026-04-21 23:26 | -31.73575 | -63.59508 | 16635 ft | 201 kts | 134° |
| 2026-04-21 23:26 | -31.74428 | -63.58208 | 16762 ft | 200 kts | 135° |
| 2026-04-21 23:26 | -31.75277 | -63.56916 | 16884 ft | 199 kts | 135° |
| 2026-04-21 23:26 | -31.76117 | -63.55635 | 17001 ft | 197 kts | 135° |
| 2026-04-21 23:27 | -31.76951 | -63.54363 | 17125 ft | 195 kts | 135° |
| 2026-04-21 23:27 | -31.77775 | -63.53105 | 17245 ft | 193 kts | 136° |
| 2026-04-21 23:27 | -31.78591 | -63.51861 | 17365 ft | 191 kts | 136° |
| 2026-04-21 23:27 | -31.79383 | -63.50651 | 17480 ft | 188 kts | 137° |
| 2026-04-21 23:28 | -31.80183 | -63.49431 | 17600 ft | 184 kts | 137° |
| 2026-04-21 23:28 | -31.80948 | -63.48263 | 17713 ft | 181 kts | 138° |
| 2026-04-21 23:28 | -31.81706 | -63.47104 | 17829 ft | 177 kts | 139° |
| 2026-04-21 23:28 | -31.82447 | -63.45974 | 17945 ft | 172 kts | 140° |
| 2026-04-21 23:29 | -31.83166 | -63.44875 | 18057 ft | 167 kts | 140° |
| 2026-04-21 23:29 | -31.83852 | -63.43826 | 18161 ft | 161 kts | 141° |
| 2026-04-21 23:29 | -31.84518 | -63.42807 | 18262 ft | 153 kts | 142° |
| 2026-04-21 23:29 | -31.85145 | -63.41847 | 18352 ft | 142 kts | 144° |
| 2026-04-21 23:30 | -31.85724 | -63.40980 | 18392 ft | 129 kts | 153° |
| 2026-04-21 23:30 | -31.86489 | -63.40244 | 18158 ft | 159 kts | 158° |
| 2026-04-21 23:30 | -31.87440 | -63.39329 | 18009 ft | 195 kts | 147° |
| 2026-04-21 23:30 | -31.88413 | -63.38273 | 18396 ft | 188 kts | 147° |
| 2026-04-21 23:31 | -31.89165 | -63.36999 | 18664 ft | 198 kts | 115° |
| 2026-04-21 23:31 | -31.89598 | -63.35400 | 18744 ft | 212 kts | 110° |
| 2026-04-21 23:31 | -31.90267 | -63.33854 | 18844 ft | 212 kts | 134° |
| 2026-04-21 23:31 | -31.91206 | -63.32543 | 18968 ft | 215 kts | 140° |
| 2026-04-21 23:32 | -31.92190 | -63.31188 | 19074 ft | 221 kts | 137° |
| 2026-04-21 23:32 | -31.93155 | -63.29761 | 19178 ft | 225 kts | 136° |
| 2026-04-21 23:32 | -31.94122 | -63.28307 | 19279 ft | 227 kts | 136° |
| 2026-04-21 23:32 | -31.95105 | -63.26842 | 19378 ft | 229 kts | 136° |
| 2026-04-21 23:33 | -31.96099 | -63.25368 | 19472 ft | 230 kts | 136° |
| 2026-04-21 23:33 | -31.97098 | -63.23887 | 19570 ft | 231 kts | 136° |
| 2026-04-21 23:33 | -31.98105 | -63.22391 | 19582 ft | 231 kts | 136° |
| 2026-04-21 23:33 | -31.99072 | -63.20943 | 19575 ft | 220 kts | 136° |
| 2026-04-21 23:34 | -32.00008 | -63.19549 | 19565 ft | 214 kts | 137° |
| 2026-04-21 23:34 | -32.00924 | -63.18190 | 19563 ft | 209 kts | 137° |
| 2026-04-21 23:34 | -32.01821 | -63.16858 | 19561 ft | 206 kts | 137° |
| 2026-04-21 23:34 | -32.02704 | -63.15544 | 19561 ft | 204 kts | 137° |
| 2026-04-21 23:35 | -32.03581 | -63.14239 | 19559 ft | 202 kts | 137° |
| 2026-04-21 23:35 | -32.04448 | -63.12948 | 19561 ft | 201 kts | 137° |
| 2026-04-21 23:35 | -32.05316 | -63.11656 | 19514 ft | 203 kts | 137° |
| 2026-04-21 23:35 | -32.06207 | -63.10332 | 19400 ft | 208 kts | 137° |
| 2026-04-21 23:36 | -32.07126 | -63.08965 | 19189 ft | 217 kts | 136° |
| 2026-04-21 23:36 | -32.08072 | -63.07553 | 18975 ft | 222 kts | 136° |
| 2026-04-21 23:36 | -32.09014 | -63.06135 | 18945 ft | 214 kts | 136° |
| 2026-04-21 23:36 | -32.09923 | -63.04774 | 18942 ft | 209 kts | 136° |
| 2026-04-21 23:37 | -32.10814 | -63.03446 | 18942 ft | 204 kts | 137° |
| 2026-04-21 23:37 | -32.11689 | -63.02142 | 18939 ft | 202 kts | 137° |
| 2026-04-21 23:37 | -32.12556 | -63.00847 | 18942 ft | 200 kts | 137° |
| 2026-04-21 23:37 | -32.13414 | -62.99566 | 18939 ft | 199 kts | 137° |
| 2026-04-21 23:38 | -32.14267 | -62.98289 | 18942 ft | 198 kts | 137° |
| 2026-04-21 23:38 | -32.15117 | -62.97019 | 18939 ft | 197 kts | 137° |
| 2026-04-21 23:38 | -32.15965 | -62.95750 | 18941 ft | 197 kts | 137° |
| 2026-04-21 23:38 | -32.16810 | -62.94484 | 18938 ft | 196 kts | 137° |
| 2026-04-21 23:39 | -32.17654 | -62.93221 | 18941 ft | 196 kts | 137° |
| 2026-04-21 23:39 | -32.18488 | -62.91971 | 18940 ft | 196 kts | 137° |
| 2026-04-21 23:39 | -32.19330 | -62.90709 | 18941 ft | 195 kts | 137° |
| 2026-04-21 23:39 | -32.20171 | -62.89450 | 18941 ft | 195 kts | 137° |
| 2026-04-21 23:40 | -32.21011 | -62.88190 | 18942 ft | 195 kts | 137° |
| 2026-04-21 23:40 | -32.21848 | -62.86934 | 18936 ft | 195 kts | 137° |
| 2026-04-21 23:40 | -32.22687 | -62.85675 | 18938 ft | 195 kts | 137° |
| 2026-04-21 23:40 | -32.23525 | -62.84418 | 18939 ft | 195 kts | 137° |
| 2026-04-21 23:41 | -32.24362 | -62.83160 | 18939 ft | 195 kts | 137° |
| 2026-04-21 23:41 | -32.25188 | -62.81919 | 18939 ft | 195 kts | 137° |
| 2026-04-21 23:41 | -32.26039 | -62.80641 | 18938 ft | 195 kts | 137° |
| 2026-04-21 23:41 | -32.26866 | -62.79398 | 18937 ft | 195 kts | 137° |
| 2026-04-21 23:42 | -32.27703 | -62.78139 | 18939 ft | 195 kts | 137° |
| 2026-04-21 23:42 | -32.28552 | -62.76863 | 18939 ft | 195 kts | 137° |
| 2026-04-21 23:42 | -32.29377 | -62.75622 | 18940 ft | 195 kts | 137° |
| 2026-04-21 23:42 | -32.30213 | -62.74363 | 18937 ft | 195 kts | 137° |
| 2026-04-21 23:43 | -32.31051 | -62.73102 | 18942 ft | 195 kts | 137° |
| 2026-04-21 23:43 | -32.31888 | -62.71842 | 18940 ft | 195 kts | 137° |
| 2026-04-21 23:43 | -32.32724 | -62.70582 | 18941 ft | 195 kts | 137° |
| 2026-04-21 23:43 | -32.33560 | -62.69321 | 18941 ft | 195 kts | 137° |
| 2026-04-21 23:44 | -32.34395 | -62.68063 | 18939 ft | 195 kts | 137° |
| 2026-04-21 23:44 | -32.35231 | -62.66802 | 18938 ft | 195 kts | 137° |
| 2026-04-21 23:44 | -32.36068 | -62.65541 | 18939 ft | 195 kts | 137° |
| 2026-04-21 23:44 | -32.36904 | -62.64278 | 18941 ft | 195 kts | 137° |
| 2026-04-21 23:45 | -32.37742 | -62.63014 | 18938 ft | 195 kts | 137° |
| 2026-04-21 23:45 | -32.39131 | -62.60916 | 18941 ft | 195 kts | 137° |
| 2026-04-21 23:45 | -32.40236 | -62.59245 | 18942 ft | 195 kts | 137° |
| 2026-04-21 23:46 | -32.40803 | -62.58388 | 18947 ft | 195 kts | 137° |
| 2026-04-21 23:46 | -32.41629 | -62.57140 | 18945 ft | 195 kts | 137° |
| 2026-04-21 23:46 | -32.42466 | -62.55874 | 18947 ft | 195 kts | 137° |
| 2026-04-21 23:46 | -32.43303 | -62.54608 | 18945 ft | 196 kts | 137° |
| 2026-04-21 23:47 | -32.44157 | -62.53316 | 18944 ft | 197 kts | 137° |
| 2026-04-21 23:47 | -32.45003 | -62.52036 | 18946 ft | 198 kts | 137° |
| 2026-04-21 23:47 | -32.45841 | -62.50767 | 18949 ft | 198 kts | 137° |
| 2026-04-21 23:47 | -32.46691 | -62.49479 | 18950 ft | 199 kts | 137° |
| 2026-04-21 23:48 | -32.47545 | -62.48185 | 18950 ft | 199 kts | 137° |
| 2026-04-21 23:48 | -32.48398 | -62.46890 | 18949 ft | 200 kts | 137° |
| 2026-04-21 23:48 | -32.49253 | -62.45595 | 18948 ft | 200 kts | 137° |
| 2026-04-21 23:48 | -32.50110 | -62.44295 | 18949 ft | 200 kts | 137° |
| 2026-04-21 23:49 | -32.50966 | -62.42996 | 18947 ft | 200 kts | 137° |
| 2026-04-21 23:49 | -32.51824 | -62.41692 | 18946 ft | 200 kts | 137° |
| 2026-04-21 23:49 | -32.52682 | -62.40389 | 18948 ft | 201 kts | 137° |
| 2026-04-21 23:49 | -32.53540 | -62.39086 | 18945 ft | 201 kts | 137° |
| 2026-04-21 23:50 | -32.54400 | -62.37779 | 18949 ft | 201 kts | 137° |
| 2026-04-21 23:50 | -32.55258 | -62.36474 | 18947 ft | 201 kts | 137° |
| 2026-04-21 23:50 | -32.56119 | -62.35166 | 18949 ft | 201 kts | 137° |
| 2026-04-21 23:50 | -32.56977 | -62.33860 | 18948 ft | 201 kts | 137° |
| 2026-04-21 23:51 | -32.57837 | -62.32550 | 18946 ft | 201 kts | 137° |
| 2026-04-21 23:51 | -32.58699 | -62.31240 | 18943 ft | 202 kts | 137° |
| 2026-04-21 23:51 | -32.59564 | -62.29923 | 18945 ft | 203 kts | 137° |
| 2026-04-21 23:51 | -32.60433 | -62.28598 | 18946 ft | 204 kts | 137° |
| 2026-04-21 23:52 | -32.61306 | -62.27268 | 18946 ft | 204 kts | 136° |
| 2026-04-21 23:52 | -32.62180 | -62.25936 | 18950 ft | 205 kts | 136° |
| 2026-04-21 23:52 | -32.63054 | -62.24602 | 18949 ft | 205 kts | 136° |
| 2026-04-21 23:52 | -32.63931 | -62.23264 | 18945 ft | 205 kts | 136° |
| 2026-04-21 23:53 | -32.64809 | -62.21924 | 18947 ft | 206 kts | 137° |
| 2026-04-21 23:53 | -32.65687 | -62.20583 | 18943 ft | 206 kts | 136° |
| 2026-04-21 23:53 | -32.66564 | -62.19244 | 18943 ft | 206 kts | 136° |
| 2026-04-21 23:53 | -32.67444 | -62.17900 | 18944 ft | 206 kts | 136° |
| 2026-04-21 23:54 | -32.68322 | -62.16558 | 18940 ft | 206 kts | 137° |
| 2026-04-21 23:54 | -32.69148 | -62.15156 | 18937 ft | 208 kts | 131° |
| 2026-04-21 23:54 | -32.69974 | -62.13753 | 18938 ft | 207 kts | 134° |
| 2026-04-21 23:54 | -32.70811 | -62.12359 | 18939 ft | 207 kts | 133° |
| 2026-04-21 23:55 | -32.71638 | -62.10953 | 18943 ft | 208 kts | 133° |
| 2026-04-21 23:55 | -32.72451 | -62.09559 | 18942 ft | 208 kts | 133° |
| 2026-04-21 23:55 | -32.73277 | -62.08144 | 18943 ft | 208 kts | 133° |
| 2026-04-21 23:55 | -32.74105 | -62.06730 | 18941 ft | 208 kts | 133° |
| 2026-04-21 23:56 | -32.74925 | -62.05326 | 18942 ft | 209 kts | 133° |
| 2026-04-21 23:56 | -32.75752 | -62.03910 | 18941 ft | 209 kts | 133° |
| 2026-04-21 23:56 | -32.76580 | -62.02492 | 18940 ft | 209 kts | 133° |
| 2026-04-21 23:56 | -32.77408 | -62.01074 | 18940 ft | 209 kts | 133° |
| 2026-04-21 23:57 | -32.78237 | -61.99654 | 18943 ft | 209 kts | 133° |
| 2026-04-21 23:57 | -32.79066 | -61.98233 | 18941 ft | 209 kts | 133° |
| 2026-04-21 23:57 | -32.79896 | -61.96810 | 18941 ft | 209 kts | 133° |
| 2026-04-21 23:57 | -32.80725 | -61.95386 | 18940 ft | 210 kts | 133° |
| 2026-04-21 23:58 | -32.81556 | -61.93961 | 18939 ft | 210 kts | 133° |
| 2026-04-21 23:58 | -32.82387 | -61.92534 | 18941 ft | 210 kts | 133° |
| 2026-04-21 23:58 | -32.83220 | -61.91103 | 18938 ft | 211 kts | 133° |
| 2026-04-21 23:58 | -32.84056 | -61.89667 | 18939 ft | 211 kts | 133° |
| 2026-04-21 23:59 | -32.84890 | -61.88233 | 18940 ft | 211 kts | 133° |
| 2026-04-21 23:59 | -32.85725 | -61.86798 | 18938 ft | 211 kts | 133° |
| 2026-04-21 23:59 | -32.86561 | -61.85360 | 18942 ft | 211 kts | 133° |
| 2026-04-21 23:59 | -32.87396 | -61.83922 | 18938 ft | 211 kts | 133° |
| 2026-04-22 00:00 | -32.88222 | -61.82500 | 18938 ft | 212 kts | 133° |
| 2026-04-22 00:00 | -32.89059 | -61.81059 | 18939 ft | 212 kts | 133° |
| 2026-04-22 00:00 | -32.89897 | -61.79616 | 18941 ft | 212 kts | 133° |
| 2026-04-22 00:00 | -32.90733 | -61.78174 | 18938 ft | 212 kts | 133° |
| 2026-04-22 00:01 | -32.91570 | -61.76731 | 18937 ft | 212 kts | 133° |
| 2026-04-22 00:01 | -32.92409 | -61.75284 | 18941 ft | 212 kts | 133° |
| 2026-04-22 00:01 | -32.93247 | -61.73838 | 18935 ft | 212 kts | 133° |
| 2026-04-22 00:01 | -32.94086 | -61.72389 | 18937 ft | 213 kts | 133° |
| 2026-04-22 00:02 | -32.94926 | -61.70939 | 18937 ft | 213 kts | 133° |
| 2026-04-22 00:02 | -32.95765 | -61.69489 | 18936 ft | 213 kts | 133° |
| 2026-04-22 00:02 | -32.96589 | -61.68061 | 19043 ft | 206 kts | 133° |
| 2026-04-22 00:02 | -32.97410 | -61.66645 | 19044 ft | 209 kts | 133° |
| 2026-04-22 00:03 | -32.98234 | -61.65222 | 19049 ft | 209 kts | 133° |
| 2026-04-22 00:03 | -32.99063 | -61.63787 | 19053 ft | 211 kts | 133° |
| 2026-04-22 00:03 | -32.99894 | -61.62348 | 19050 ft | 211 kts | 133° |
| 2026-04-22 00:03 | -33.00729 | -61.60902 | 19051 ft | 212 kts | 133° |
| 2026-04-22 00:04 | -33.01566 | -61.59453 | 19060 ft | 213 kts | 133° |
| 2026-04-22 00:04 | -33.02406 | -61.57998 | 19060 ft | 213 kts | 133° |
| 2026-04-22 00:04 | -33.03246 | -61.56541 | 19060 ft | 213 kts | 133° |
| 2026-04-22 00:04 | -33.04087 | -61.55082 | 19060 ft | 214 kts | 133° |
| 2026-04-22 00:05 | -33.04928 | -61.53622 | 19058 ft | 214 kts | 133° |
| 2026-04-22 00:05 | -33.05770 | -61.52161 | 19058 ft | 214 kts | 133° |
| 2026-04-22 00:05 | -33.06614 | -61.50697 | 19058 ft | 214 kts | 133° |
| 2026-04-22 00:05 | -33.07456 | -61.49234 | 19055 ft | 214 kts | 133° |
| 2026-04-22 00:06 | -33.08299 | -61.47769 | 19060 ft | 214 kts | 133° |
| 2026-04-22 00:06 | -33.09143 | -61.46301 | 19058 ft | 215 kts | 133° |
| 2026-04-22 00:06 | -33.09986 | -61.44835 | 19055 ft | 215 kts | 133° |
| 2026-04-22 00:06 | -33.10832 | -61.43364 | 19058 ft | 215 kts | 132° |
| 2026-04-22 00:07 | -33.11675 | -61.41897 | 19056 ft | 215 kts | 132° |
| 2026-04-22 00:07 | -33.12520 | -61.40425 | 19058 ft | 215 kts | 133° |
| 2026-04-22 00:07 | -33.13365 | -61.38955 | 19055 ft | 215 kts | 132° |
| 2026-04-22 00:07 | -33.14211 | -61.37480 | 19056 ft | 215 kts | 133° |
| 2026-04-22 00:08 | -33.15055 | -61.36009 | 19053 ft | 215 kts | 133° |
| 2026-04-22 00:08 | -33.15899 | -61.34535 | 19058 ft | 215 kts | 132° |
| 2026-04-22 00:08 | -33.16631 | -61.32963 | 19032 ft | 221 kts | 112° |
| 2026-04-22 00:08 | -33.17180 | -61.31284 | 19036 ft | 214 kts | 129° |
| 2026-04-22 00:09 | -33.18038 | -61.29859 | 19042 ft | 212 kts | 133° |
| 2026-04-22 00:09 | -33.18833 | -61.28363 | 19045 ft | 215 kts | 127° |
| 2026-04-22 00:09 | -33.19559 | -61.26791 | 19044 ft | 217 kts | 125° |
| 2026-04-22 00:09 | -33.20271 | -61.25228 | 19047 ft | 217 kts | 125° |
| 2026-04-22 00:10 | -33.21003 | -61.23655 | 19057 ft | 217 kts | 126° |
| 2026-04-22 00:10 | -33.21740 | -61.22079 | 19051 ft | 218 kts | 126° |
| 2026-04-22 00:10 | -33.22477 | -61.20499 | 19053 ft | 218 kts | 126° |
| 2026-04-22 00:10 | -33.23214 | -61.18916 | 19053 ft | 218 kts | 126° |
| 2026-04-22 00:11 | -33.23952 | -61.17330 | 19048 ft | 219 kts | 126° |
| 2026-04-22 00:11 | -33.24691 | -61.15742 | 19052 ft | 219 kts | 126° |
| 2026-04-22 00:11 | -33.25432 | -61.14149 | 19049 ft | 219 kts | 125° |
| 2026-04-22 00:11 | -33.26171 | -61.12559 | 19053 ft | 219 kts | 125° |
| 2026-04-22 00:12 | -33.26912 | -61.10966 | 19049 ft | 219 kts | 125° |
| 2026-04-22 00:12 | -33.27652 | -61.09373 | 19047 ft | 219 kts | 125° |
| 2026-04-22 00:12 | -33.28393 | -61.07776 | 19045 ft | 219 kts | 125° |
| 2026-04-22 00:12 | -33.29133 | -61.06183 | 19047 ft | 219 kts | 125° |
| 2026-04-22 00:13 | -33.29872 | -61.04589 | 19049 ft | 219 kts | 125° |
| 2026-04-22 00:13 | -33.30611 | -61.02995 | 19054 ft | 219 kts | 125° |
| 2026-04-22 00:13 | -33.31350 | -61.01403 | 19043 ft | 219 kts | 125° |
| 2026-04-22 00:13 | -33.32090 | -60.99805 | 19045 ft | 219 kts | 125° |
| 2026-04-22 00:14 | -33.32829 | -60.98209 | 19044 ft | 219 kts | 125° |
| 2026-04-22 00:14 | -33.33567 | -60.96614 | 19043 ft | 220 kts | 125° |
| 2026-04-22 00:14 | -33.34308 | -60.95014 | 19042 ft | 220 kts | 125° |
| 2026-04-22 00:14 | -33.35049 | -60.93411 | 19047 ft | 220 kts | 125° |
| 2026-04-22 00:15 | -33.35790 | -60.91807 | 19040 ft | 220 kts | 125° |
| 2026-04-22 00:15 | -33.36533 | -60.90201 | 19043 ft | 221 kts | 125° |
| 2026-04-22 00:15 | -33.37275 | -60.88594 | 19043 ft | 221 kts | 125° |
| 2026-04-22 00:15 | -33.38016 | -60.86987 | 19045 ft | 221 kts | 125° |
| 2026-04-22 00:16 | -33.38759 | -60.85379 | 19043 ft | 221 kts | 125° |
| 2026-04-22 00:16 | -33.39501 | -60.83768 | 19041 ft | 221 kts | 125° |
| 2026-04-22 00:16 | -33.40241 | -60.82165 | 19040 ft | 221 kts | 125° |
| 2026-04-22 00:16 | -33.40983 | -60.80553 | 19042 ft | 221 kts | 124° |
| 2026-04-22 00:17 | -33.41725 | -60.78943 | 19041 ft | 221 kts | 124° |
| 2026-04-22 00:17 | -33.42454 | -60.77359 | 19044 ft | 221 kts | 124° |
| 2026-04-22 00:17 | -33.43206 | -60.75725 | 19044 ft | 221 kts | 124° |
| 2026-04-22 00:17 | -33.43948 | -60.74112 | 19045 ft | 221 kts | 124° |
| 2026-04-22 00:18 | -33.44679 | -60.72523 | 19035 ft | 221 kts | 125° |
| 2026-04-22 00:18 | -33.45420 | -60.70909 | 19036 ft | 221 kts | 124° |
| 2026-04-22 00:18 | -33.46161 | -60.69297 | 19037 ft | 221 kts | 124° |
| 2026-04-22 00:18 | -33.46902 | -60.67684 | 19039 ft | 221 kts | 124° |
| 2026-04-22 00:19 | -33.47642 | -60.66072 | 19036 ft | 221 kts | 124° |
| 2026-04-22 00:19 | -33.48383 | -60.64457 | 19035 ft | 221 kts | 124° |
| 2026-04-22 00:19 | -33.49124 | -60.62839 | 19035 ft | 221 kts | 124° |
| 2026-04-22 00:19 | -33.49864 | -60.61225 | 19037 ft | 221 kts | 124° |
| 2026-04-22 00:20 | -33.50605 | -60.59607 | 19038 ft | 221 kts | 124° |
| 2026-04-22 00:20 | -33.51346 | -60.57989 | 19034 ft | 222 kts | 124° |
| 2026-04-22 00:20 | -33.52087 | -60.56370 | 19035 ft | 222 kts | 124° |
| 2026-04-22 00:20 | -33.52828 | -60.54750 | 19035 ft | 222 kts | 124° |
| 2026-04-22 00:21 | -33.53570 | -60.53129 | 19034 ft | 222 kts | 124° |
| 2026-04-22 00:21 | -33.54311 | -60.51507 | 19036 ft | 222 kts | 124° |
| 2026-04-22 00:21 | -33.55053 | -60.49884 | 19034 ft | 222 kts | 124° |
| 2026-04-22 00:21 | -33.55795 | -60.48259 | 19030 ft | 222 kts | 124° |
| 2026-04-22 00:22 | -33.56536 | -60.46636 | 19035 ft | 222 kts | 124° |
| 2026-04-22 00:22 | -33.57278 | -60.45009 | 19032 ft | 222 kts | 124° |
| 2026-04-22 00:22 | -33.58020 | -60.43382 | 19033 ft | 222 kts | 124° |
| 2026-04-22 00:22 | -33.58761 | -60.41756 | 19033 ft | 222 kts | 124° |
| 2026-04-22 00:23 | -33.59502 | -60.40129 | 19032 ft | 222 kts | 124° |
| 2026-04-22 00:23 | -33.60243 | -60.38501 | 19029 ft | 222 kts | 124° |
| 2026-04-22 00:23 | -33.60987 | -60.36870 | 19033 ft | 222 kts | 124° |
| 2026-04-22 00:23 | -33.61727 | -60.35242 | 19033 ft | 222 kts | 124° |
| 2026-04-22 00:24 | -33.62467 | -60.33614 | 19029 ft | 222 kts | 124° |
| 2026-04-22 00:24 | -33.63208 | -60.31985 | 19029 ft | 222 kts | 124° |
| 2026-04-22 00:24 | -33.63949 | -60.30354 | 19029 ft | 222 kts | 124° |
| 2026-04-22 00:24 | -33.64688 | -60.28726 | 19030 ft | 222 kts | 124° |
| 2026-04-22 00:25 | -33.65427 | -60.27098 | 19027 ft | 222 kts | 124° |
| 2026-04-22 00:25 | -33.66167 | -60.25468 | 19026 ft | 222 kts | 124° |
| 2026-04-22 00:25 | -33.66905 | -60.23841 | 19026 ft | 222 kts | 124° |
| 2026-04-22 00:25 | -33.67643 | -60.22212 | 19025 ft | 222 kts | 124° |
| 2026-04-22 00:26 | -33.68382 | -60.20581 | 19027 ft | 222 kts | 124° |
| 2026-04-22 00:26 | -33.69120 | -60.18953 | 19022 ft | 222 kts | 124° |
| 2026-04-22 00:26 | -33.69858 | -60.17322 | 19022 ft | 222 kts | 124° |
| 2026-04-22 00:26 | -33.70596 | -60.15691 | 19020 ft | 222 kts | 124° |
| 2026-04-22 00:27 | -33.71333 | -60.14060 | 19024 ft | 222 kts | 124° |
| 2026-04-22 00:27 | -33.72070 | -60.12431 | 19022 ft | 222 kts | 124° |
| 2026-04-22 00:27 | -33.72806 | -60.10802 | 19024 ft | 222 kts | 124° |
| 2026-04-22 00:27 | -33.73544 | -60.09168 | 19020 ft | 222 kts | 124° |
| 2026-04-22 00:28 | -33.74280 | -60.07536 | 19019 ft | 222 kts | 124° |
| 2026-04-22 00:28 | -33.75016 | -60.05905 | 19020 ft | 222 kts | 124° |
| 2026-04-22 00:28 | -33.75754 | -60.04271 | 19019 ft | 222 kts | 124° |
| 2026-04-22 00:28 | -33.76491 | -60.02635 | 19020 ft | 222 kts | 124° |
| 2026-04-22 00:29 | -33.77226 | -60.01003 | 19023 ft | 222 kts | 124° |
| 2026-04-22 00:29 | -33.77962 | -59.99371 | 19015 ft | 222 kts | 124° |
| 2026-04-22 00:29 | -33.78698 | -59.97736 | 19017 ft | 222 kts | 124° |
| 2026-04-22 00:29 | -33.79423 | -59.96124 | 19018 ft | 222 kts | 124° |
| 2026-04-22 00:30 | -33.80157 | -59.94491 | 19016 ft | 222 kts | 124° |
| 2026-04-22 00:30 | -33.80892 | -59.92857 | 19018 ft | 222 kts | 124° |
| 2026-04-22 00:30 | -33.81626 | -59.91224 | 19014 ft | 222 kts | 124° |
| 2026-04-22 00:30 | -33.82359 | -59.89591 | 19013 ft | 222 kts | 124° |
| 2026-04-22 00:31 | -33.83093 | -59.87956 | 19019 ft | 222 kts | 124° |
| 2026-04-22 00:31 | -33.83826 | -59.86323 | 19019 ft | 222 kts | 124° |
| 2026-04-22 00:31 | -33.84560 | -59.84685 | 19016 ft | 222 kts | 124° |
| 2026-04-22 00:31 | -33.85294 | -59.83050 | 19014 ft | 222 kts | 124° |
| 2026-04-22 00:32 | -33.86028 | -59.81412 | 19016 ft | 222 kts | 124° |
| 2026-04-22 00:32 | -33.86761 | -59.79773 | 19013 ft | 222 kts | 124° |
| 2026-04-22 00:32 | -33.87495 | -59.78134 | 19012 ft | 222 kts | 124° |
| 2026-04-22 00:32 | -33.88229 | -59.76495 | 19015 ft | 223 kts | 124° |
| 2026-04-22 00:33 | -33.88715 | -59.75408 | 19016 ft | 223 kts | 124° |
| 2026-04-22 00:33 | -33.89449 | -59.73767 | 19010 ft | 223 kts | 123° |
| 2026-04-22 00:33 | -33.90182 | -59.72126 | 19007 ft | 223 kts | 124° |
| 2026-04-22 00:33 | -33.90916 | -59.70481 | 19008 ft | 223 kts | 123° |
| 2026-04-22 00:34 | -33.91650 | -59.68838 | 19007 ft | 223 kts | 123° |
| 2026-04-22 00:34 | -33.92383 | -59.67197 | 19007 ft | 223 kts | 123° |
| 2026-04-22 00:34 | -33.93116 | -59.65554 | 19010 ft | 223 kts | 123° |
| 2026-04-22 00:34 | -33.93849 | -59.63909 | 19009 ft | 223 kts | 124° |
| 2026-04-22 00:35 | -33.94581 | -59.62266 | 19009 ft | 223 kts | 124° |
| 2026-04-22 00:35 | -33.95314 | -59.60622 | 19005 ft | 223 kts | 124° |
| 2026-04-22 00:35 | -33.96047 | -59.58975 | 19005 ft | 223 kts | 124° |
| 2026-04-22 00:35 | -33.96780 | -59.57328 | 19006 ft | 223 kts | 123° |
| 2026-04-22 00:36 | -33.97512 | -59.55682 | 19010 ft | 223 kts | 124° |
| 2026-04-22 00:36 | -33.98243 | -59.54037 | 19007 ft | 223 kts | 124° |
| 2026-04-22 00:36 | -33.98973 | -59.52394 | 19007 ft | 223 kts | 124° |
| 2026-04-22 00:36 | -33.99704 | -59.50749 | 19007 ft | 223 kts | 123° |
| 2026-04-22 00:37 | -34.00436 | -59.49102 | 19006 ft | 223 kts | 123° |
| 2026-04-22 00:37 | -34.01166 | -59.47456 | 19002 ft | 223 kts | 123° |
| 2026-04-22 00:37 | -34.01897 | -59.45808 | 19006 ft | 223 kts | 123° |
| 2026-04-22 00:37 | -34.02628 | -59.44159 | 18994 ft | 224 kts | 123° |
| 2026-04-22 00:38 | -34.03377 | -59.42478 | 18771 ft | 236 kts | 123° |
| 2026-04-22 00:38 | -34.04160 | -59.40710 | 18553 ft | 242 kts | 123° |
| 2026-04-22 00:38 | -34.04956 | -59.38905 | 18330 ft | 243 kts | 122° |
| 2026-04-22 00:38 | -34.05723 | -59.37157 | 18063 ft | 229 kts | 123° |
| 2026-04-22 00:39 | -34.06459 | -59.35492 | 17793 ft | 222 kts | 123° |
| 2026-04-22 00:39 | -34.07187 | -59.33850 | 17519 ft | 217 kts | 123° |
| 2026-04-22 00:39 | -34.07890 | -59.32263 | 17255 ft | 213 kts | 123° |
| 2026-04-22 00:39 | -34.08580 | -59.30702 | 16993 ft | 210 kts | 123° |
| 2026-04-22 00:40 | -34.09264 | -59.29152 | 16734 ft | 208 kts | 123° |
| 2026-04-22 00:40 | -34.09941 | -59.27616 | 16484 ft | 207 kts | 123° |
| 2026-04-22 00:40 | -34.10605 | -59.26111 | 16235 ft | 205 kts | 123° |
| 2026-04-22 00:40 | -34.11275 | -59.24593 | 15982 ft | 204 kts | 122° |
| 2026-04-22 00:41 | -34.11941 | -59.23083 | 15733 ft | 203 kts | 122° |
| 2026-04-22 00:41 | -34.12603 | -59.21579 | 15505 ft | 203 kts | 122° |
| 2026-04-22 00:41 | -34.13262 | -59.20082 | 15256 ft | 202 kts | 122° |
| 2026-04-22 00:41 | -34.13920 | -59.18586 | 15015 ft | 201 kts | 122° |
| 2026-04-22 00:42 | -34.14571 | -59.17105 | 14776 ft | 200 kts | 122° |
| 2026-04-22 00:42 | -34.15228 | -59.15613 | 14450 ft | 202 kts | 121° |
| 2026-04-22 00:42 | -34.15886 | -59.14115 | 14105 ft | 202 kts | 121° |
| 2026-04-22 00:42 | -34.16541 | -59.12621 | 13752 ft | 201 kts | 121° |
| 2026-04-22 00:43 | -34.17192 | -59.11137 | 13356 ft | 199 kts | 121° |
| 2026-04-22 00:43 | -34.17840 | -59.09661 | 12972 ft | 198 kts | 121° |
| 2026-04-22 00:43 | -34.18483 | -59.08196 | 12598 ft | 197 kts | 122° |
| 2026-04-22 00:43 | -34.19120 | -59.06743 | 12224 ft | 195 kts | 122° |
| 2026-04-22 00:44 | -34.19752 | -59.05302 | 11851 ft | 194 kts | 122° |
| 2026-04-22 00:44 | -34.20380 | -59.03869 | 11480 ft | 192 kts | 122° |
| 2026-04-22 00:44 | -34.21002 | -59.02448 | 11120 ft | 190 kts | 122° |
| 2026-04-22 00:44 | -34.21628 | -59.01022 | 10664 ft | 194 kts | 122° |
| 2026-04-22 00:45 | -34.22262 | -58.99573 | 10201 ft | 196 kts | 122° |
| 2026-04-22 00:45 | -34.22897 | -58.98121 | 9723 ft | 195 kts | 122° |
| 2026-04-22 00:45 | -34.23528 | -58.96676 | 9216 ft | 194 kts | 122° |
| 2026-04-22 00:45 | -34.24156 | -58.95239 | 8715 ft | 192 kts | 122° |
| 2026-04-22 00:46 | -34.24777 | -58.93818 | 8221 ft | 191 kts | 121° |
| 2026-04-22 00:46 | -34.25394 | -58.92407 | 7727 ft | 189 kts | 121° |
| 2026-04-22 00:46 | -34.26001 | -58.91015 | 7252 ft | 186 kts | 121° |
| 2026-04-22 00:46 | -34.26599 | -58.89644 | 6772 ft | 183 kts | 120° |
| 2026-04-22 00:47 | -34.27192 | -58.88285 | 6298 ft | 182 kts | 120° |
| 2026-04-22 00:47 | -34.27777 | -58.86944 | 5798 ft | 179 kts | 120° |
| 2026-04-22 00:47 | -34.28353 | -58.85624 | 5311 ft | 176 kts | 119° |
| 2026-04-22 00:47 | -34.28922 | -58.84316 | 4827 ft | 174 kts | 118° |
| 2026-04-22 00:48 | -34.29482 | -58.83030 | 4308 ft | 172 kts | 118° |
| 2026-04-22 00:48 | -34.30037 | -58.81754 | 3746 ft | 172 kts | 118° |
| 2026-04-22 00:48 | -34.30582 | -58.80502 | 3407 ft | 161 kts | 118° |
| 2026-04-22 00:48 | -34.31083 | -58.79347 | 3155 ft | 151 kts | 119° |
| 2026-04-22 00:49 | -34.31563 | -58.78243 | 2924 ft | 143 kts | 119° |
| 2026-04-22 00:49 | -34.31990 | -58.77257 | 2960 ft | 129 kts | 120° |
| 2026-04-22 00:49 | -34.32382 | -58.76270 | 2955 ft | 135 kts | 107° |
| 2026-04-22 00:49 | -34.32317 | -58.75140 | 2969 ft | 134 kts | 73° |
| 2026-04-22 00:50 | -34.32107 | -58.74022 | 2963 ft | 138 kts | 76° |
| 2026-04-22 00:50 | -34.31912 | -58.72876 | 2975 ft | 141 kts | 76° |
| 2026-04-22 00:50 | -34.31723 | -58.71708 | 2982 ft | 142 kts | 77° |
| 2026-04-22 00:50 | -34.31532 | -58.70526 | 2985 ft | 148 kts | 77° |
| 2026-04-22 00:51 | -34.31332 | -58.69259 | 2983 ft | 158 kts | 77° |
| 2026-04-22 00:51 | -34.31121 | -58.67934 | 2983 ft | 162 kts | 77° |
| 2026-04-22 00:51 | -34.30905 | -58.66585 | 2980 ft | 165 kts | 77° |
| 2026-04-22 00:51 | -34.30687 | -58.65223 | 2979 ft | 165 kts | 77° |
| 2026-04-22 00:52 | -34.30473 | -58.63883 | 2981 ft | 164 kts | 77° |
| 2026-04-22 00:52 | -34.30256 | -58.62528 | 2982 ft | 164 kts | 77° |
| 2026-04-22 00:52 | -34.30038 | -58.61168 | 2980 ft | 165 kts | 76° |
| 2026-04-22 00:52 | -34.29817 | -58.59800 | 2972 ft | 166 kts | 77° |
| 2026-04-22 00:53 | -34.29597 | -58.58424 | 2975 ft | 167 kts | 77° |
| 2026-04-22 00:53 | -34.29376 | -58.57047 | 2979 ft | 167 kts | 76° |
| 2026-04-22 00:53 | -34.29156 | -58.55678 | 2976 ft | 165 kts | 76° |
| 2026-04-22 00:53 | -34.28937 | -58.54319 | 2982 ft | 164 kts | 76° |
| 2026-04-22 00:54 | -34.28717 | -58.52957 | 2979 ft | 166 kts | 76° |
| 2026-04-22 00:54 | -34.28500 | -58.51589 | 2978 ft | 164 kts | 77° |
| 2026-04-22 00:54 | -34.28615 | -58.50230 | 2953 ft | 166 kts | 113° |
| 2026-04-22 00:54 | -34.29355 | -58.49209 | 2960 ft | 162 kts | 150° |
| 2026-04-22 00:55 | -34.30342 | -58.48553 | 2924 ft | 165 kts | 156° |
| 2026-04-22 00:55 | -34.31389 | -58.47829 | 2609 ft | 178 kts | 154° |
| 2026-04-22 00:55 | -34.33543 | -58.46444 | 2081 ft | 168 kts | 175° |
| 2026-04-22 00:56 | -34.34636 | -58.46617 | 1964 ft | 151 kts | 207° |
| 2026-04-22 00:56 | -34.35444 | -58.47314 | 1973 ft | 139 kts | 228° |
| 2026-04-22 00:56 | -34.36131 | -58.48141 | 1969 ft | 139 kts | 227° |
| 2026-04-22 00:56 | -34.36818 | -58.48947 | 1974 ft | 136 kts | 228° |
| 2026-04-22 00:57 | -34.37498 | -58.49745 | 1974 ft | 136 kts | 228° |
| 2026-04-22 00:57 | -34.38177 | -58.50540 | 1975 ft | 136 kts | 228° |
| 2026-04-22 00:57 | -34.38858 | -58.51341 | 1977 ft | 137 kts | 227° |
| 2026-04-22 00:57 | -34.39490 | -58.52082 | 1982 ft | 110 kts | 227° |
| 2026-04-22 00:58 | -34.40026 | -58.52729 | 1359 ft | 105 kts | 228° |
| 2026-04-22 00:58 | -34.40502 | -58.53280 | 1030 ft | 90 kts | 228° |
| 2026-04-22 00:58 | -34.40962 | -58.53761 | 730 ft | 94 kts | 211° |
| 2026-04-22 00:58 | -34.41715 | -58.53588 | 854 ft | 133 kts | 152° |
| 2026-04-22 00:59 | -34.42418 | -58.52971 | 1511 ft | 113 kts | 154° |
| 2026-04-22 00:59 | -34.43104 | -58.52437 | 1883 ft | 126 kts | 158° |
| 2026-04-22 00:59 | -34.43955 | -58.51926 | 1978 ft | 151 kts | 160° |
| 2026-04-22 00:59 | -34.44917 | -58.51247 | 1965 ft | 167 kts | 150° |
| 2026-04-22 01:00 | -34.45525 | -58.50037 | 1970 ft | 169 kts | 120° |
| 2026-04-22 01:00 | -34.46365 | -58.49179 | 1977 ft | 156 kts | 161° |
| 2026-04-22 01:00 | -34.47313 | -58.48480 | 1978 ft | 161 kts | 153° |
| 2026-04-22 01:00 | -34.48259 | -58.47747 | 1985 ft | 163 kts | 154° |
| 2026-04-22 01:01 | -34.49219 | -58.47010 | 1988 ft | 163 kts | 154° |
| 2026-04-22 01:01 | -34.50181 | -58.46271 | 1986 ft | 162 kts | 154° |
| 2026-04-22 01:01 | -34.51231 | -58.45841 | 1993 ft | 148 kts | 175° |
| 2026-04-22 01:01 | -34.52168 | -58.45705 | 2330 ft | 127 kts | 192° |
| 2026-04-22 01:02 | -34.53008 | -58.45958 | 2467 ft | 125 kts | 204° |
| 2026-04-22 01:02 | -34.53890 | -58.46075 | 2474 ft | 143 kts | 167° |
| 2026-04-22 01:02 | -34.54652 | -58.45281 | 2545 ft | 154 kts | 128° |
| 2026-04-22 01:02 | -34.54467 | -58.44208 | 2606 ft | 137 kts | 23° |
| 2026-04-22 01:03 | -34.53551 | -58.43906 | 2287 ft | 152 kts | 8° |
| 2026-04-22 01:03 | -34.52585 | -58.43626 | 2428 ft | 140 kts | 6° |
| 2026-04-22 01:03 | -34.51804 | -58.43914 | 2303 ft | 116 kts | 295° |
| 2026-04-22 01:03 | -34.51450 | -58.44672 | 2406 ft | 88 kts | 295° |
| 2026-04-22 01:04 | -34.51308 | -58.45321 | 2142 ft | 74 kts | 268° |
| 2026-04-22 01:04 | -34.51566 | -58.45814 | 1794 ft | 80 kts | 210° |
| 2026-04-22 01:04 | -34.52133 | -58.45618 | 1395 ft | 97 kts | 150° |
| 2026-04-22 01:04 | -34.52707 | -58.45241 | 1228 ft | 97 kts | 169° |
| 2026-04-22 01:05 | -34.53349 | -58.44874 | 1099 ft | 106 kts | 153° |
| 2026-04-22 01:05 | -34.53915 | -58.44400 | 809 ft | 94 kts | 163° |
| 2026-04-22 01:05 | -34.54452 | -58.43946 | 482 ft | 96 kts | 150° |
| 2026-04-22 01:05 | -34.54987 | -58.43271 | 253 ft | 119 kts | 125° |
| 2026-04-22 01:06 | -34.55417 | -58.42461 | 72 ft | 103 kts | 126° |
| 2026-04-22 01:06 | -34.55775 | -58.41830 | 19 ft | 77 kts | 125° |
| 2026-04-22 01:06 | -34.55906 | -58.41601 | 18 ft | 0 kts | 115° |